sensor_id;sensor_type;location;lat;lon;timestamp;P1;durP1;ratioP1;P2;durP2;ratioP2
44440;SDS011;30146;52.268;20.944;2022-11-14T00:01:22;26.00;;;15.80;;
44440;SDS011;30146;52.268;20.944;2022-11-14T00:04:11;23.50;;;12.70;;
44440;SDS011;30146;52.268;20.944;2022-11-14T00:07:01;19.30;;;12.60;;
44440;SDS011;30146;52.268;20.944;2022-11-14T00:09:51;20.10;;;13.50;;
44440;SDS011;30146;52.268;20.944;2022-11-14T00:12:41;25.80;;;14.50;;
44440;SDS011;30146;52.268;20.944;2022-11-14T00:15:30;20.90;;;12.80;;
44440;SDS011;30146;52.268;20.944;2022-11-14T00:18:20;24.60;;;14.70;;
44440;SDS011;30146;52.268;20.944;2022-11-14T00:21:10;23.10;;;14.50;;
44440;SDS011;30146;52.268;20.944;2022-11-14T00:24:00;20.60;;;13.40;;
44440;SDS011;30146;52.268;20.944;2022-11-14T00:26:49;19.60;;;13.20;;
44440;SDS011;30146;52.268;20.944;2022-11-14T00:29:39;16.40;;;11.70;;
44440;SDS011;30146;52.268;20.944;2022-11-14T00:32:28;16.90;;;10.40;;
44440;SDS011;30146;52.268;20.944;2022-11-14T00:35:19;18.50;;;12.20;;
44440;SDS011;30146;52.268;20.944;2022-11-14T00:38:08;19.10;;;10.70;;
44440;SDS011;30146;52.268;20.944;2022-11-14T00:40:58;17.00;;;11.40;;
44440;SDS011;30146;52.268;20.944;2022-11-14T00:43:47;20.80;;;12.60;;
44440;SDS011;30146;52.268;20.944;2022-11-14T00:46:37;22.10;;;12.70;;
44440;SDS011;30146;52.268;20.944;2022-11-14T00:49:26;15.70;;;11.20;;
44440;SDS011;30146;52.268;20.944;2022-11-14T00:52:16;15.40;;;10.70;;
44440;SDS011;30146;52.268;20.944;2022-11-14T00:55:07;16.60;;;11.60;;
44440;SDS011;30146;52.268;20.944;2022-11-14T00:57:56;21.80;;;12.50;;
44440;SDS011;30146;52.268;20.944;2022-11-14T01:00:46;20.00;;;12.70;;
44440;SDS011;30146;52.268;20.944;2022-11-14T01:03:35;19.20;;;13.20;;
44440;SDS011;30146;52.268;20.944;2022-11-14T01:06:25;22.80;;;13.80;;
44440;SDS011;30146;52.268;20.944;2022-11-14T01:09:15;21.60;;;13.20;;
44440;SDS011;30146;52.268;20.944;2022-11-14T01:12:05;20.00;;;13.30;;
44440;SDS011;30146;52.268;20.944;2022-11-14T01:14:54;18.90;;;10.90;;
44440;SDS011;30146;52.268;20.944;2022-11-14T01:17:43;21.10;;;12.00;;
44440;SDS011;30146;52.268;20.944;2022-11-14T01:20:32;21.10;;;13.20;;
44440;SDS011;30146;52.268;20.944;2022-11-14T01:23:24;20.00;;;12.80;;
44440;SDS011;30146;52.268;20.944;2022-11-14T01:26:14;19.20;;;11.90;;
44440;SDS011;30146;52.268;20.944;2022-11-14T01:29:03;20.40;;;12.70;;
44440;SDS011;30146;52.268;20.944;2022-11-14T01:31:53;19.10;;;12.30;;
44440;SDS011;30146;52.268;20.944;2022-11-14T01:34:42;25.20;;;13.10;;
44440;SDS011;30146;52.268;20.944;2022-11-14T01:37:32;20.50;;;12.60;;
44440;SDS011;30146;52.268;20.944;2022-11-14T01:40:23;17.60;;;11.60;;
44440;SDS011;30146;52.268;20.944;2022-11-14T01:46:27;21.40;;;12.80;;
44440;SDS011;30146;52.268;20.944;2022-11-14T01:49:21;19.40;;;12.60;;
44440;SDS011;30146;52.268;20.944;2022-11-14T01:52:13;19.80;;;11.70;;
44440;SDS011;30146;52.268;20.944;2022-11-14T01:55:06;17.90;;;11.70;;
44440;SDS011;30146;52.268;20.944;2022-11-14T01:57:57;18.70;;;11.20;;
44440;SDS011;30146;52.268;20.944;2022-11-14T02:00:47;20.50;;;10.00;;
44440;SDS011;30146;52.268;20.944;2022-11-14T02:03:38;16.30;;;10.20;;
44440;SDS011;30146;52.268;20.944;2022-11-14T02:06:31;21.50;;;10.20;;
44440;SDS011;30146;52.268;20.944;2022-11-14T02:09:22;14.70;;;10.70;;
44440;SDS011;30146;52.268;20.944;2022-11-14T02:12:13;15.70;;;10.90;;
44440;SDS011;30146;52.268;20.944;2022-11-14T02:15:04;15.80;;;10.30;;
44440;SDS011;30146;52.268;20.944;2022-11-14T02:17:56;15.60;;;10.70;;
44440;SDS011;30146;52.268;20.944;2022-11-14T02:20:46;16.10;;;11.20;;
44440;SDS011;30146;52.268;20.944;2022-11-14T02:23:35;17.50;;;10.40;;
44440;SDS011;30146;52.268;20.944;2022-11-14T02:26:24;18.40;;;11.70;;
44440;SDS011;30146;52.268;20.944;2022-11-14T02:29:21;17.90;;;12.10;;
44440;SDS011;30146;52.268;20.944;2022-11-14T02:32:11;17.60;;;12.00;;
44440;SDS011;30146;52.268;20.944;2022-11-14T02:35:00;21.00;;;13.60;;
44440;SDS011;30146;52.268;20.944;2022-11-14T02:37:50;20.70;;;14.30;;
44440;SDS011;30146;52.268;20.944;2022-11-14T02:40:39;23.30;;;14.50;;
44440;SDS011;30146;52.268;20.944;2022-11-14T02:43:29;21.00;;;12.80;;
44440;SDS011;30146;52.268;20.944;2022-11-14T02:46:19;27.00;;;16.40;;
44440;SDS011;30146;52.268;20.944;2022-11-14T02:49:08;27.80;;;16.70;;
44440;SDS011;30146;52.268;20.944;2022-11-14T02:51:57;21.50;;;15.00;;
44440;SDS011;30146;52.268;20.944;2022-11-14T02:54:47;28.90;;;16.60;;
44440;SDS011;30146;52.268;20.944;2022-11-14T02:57:40;23.90;;;16.00;;
44440;SDS011;30146;52.268;20.944;2022-11-14T03:00:29;28.40;;;16.80;;
44440;SDS011;30146;52.268;20.944;2022-11-14T03:03:19;23.50;;;15.90;;
44440;SDS011;30146;52.268;20.944;2022-11-14T03:06:08;23.70;;;16.00;;
44440;SDS011;30146;52.268;20.944;2022-11-14T03:08:58;22.50;;;14.10;;
44440;SDS011;30146;52.268;20.944;2022-11-14T03:11:47;33.70;;;18.60;;
44440;SDS011;30146;52.268;20.944;2022-11-14T03:14:37;36.30;;;20.70;;
44440;SDS011;30146;52.268;20.944;2022-11-14T03:17:27;33.90;;;18.80;;
44440;SDS011;30146;52.268;20.944;2022-11-14T03:20:19;26.30;;;15.40;;
44440;SDS011;30146;52.268;20.944;2022-11-14T03:23:09;36.10;;;21.60;;
44440;SDS011;30146;52.268;20.944;2022-11-14T03:25:59;37.00;;;21.70;;
44440;SDS011;30146;52.268;20.944;2022-11-14T03:28:49;29.50;;;19.10;;
44440;SDS011;30146;52.268;20.944;2022-11-14T03:31:41;25.20;;;16.00;;
44440;SDS011;30146;52.268;20.944;2022-11-14T03:34:30;25.90;;;15.30;;
44440;SDS011;30146;52.268;20.944;2022-11-14T03:37:20;23.40;;;14.70;;
44440;SDS011;30146;52.268;20.944;2022-11-14T03:40:10;23.40;;;15.80;;
44440;SDS011;30146;52.268;20.944;2022-11-14T03:43:00;26.30;;;14.30;;
44440;SDS011;30146;52.268;20.944;2022-11-14T03:45:49;25.10;;;14.40;;
44440;SDS011;30146;52.268;20.944;2022-11-14T03:48:39;23.70;;;15.20;;
44440;SDS011;30146;52.268;20.944;2022-11-14T03:51:28;29.70;;;16.40;;
44440;SDS011;30146;52.268;20.944;2022-11-14T03:54:18;25.40;;;15.40;;
44440;SDS011;30146;52.268;20.944;2022-11-14T03:57:07;24.10;;;15.60;;
44440;SDS011;30146;52.268;20.944;2022-11-14T03:59:57;33.80;;;20.20;;
44440;SDS011;30146;52.268;20.944;2022-11-14T04:02:46;24.70;;;14.50;;
44440;SDS011;30146;52.268;20.944;2022-11-14T04:05:36;20.80;;;12.50;;
44440;SDS011;30146;52.268;20.944;2022-11-14T04:08:25;20.50;;;14.20;;
44440;SDS011;30146;52.268;20.944;2022-11-14T04:11:16;21.80;;;14.20;;
44440;SDS011;30146;52.268;20.944;2022-11-14T04:14:05;20.90;;;13.30;;
44440;SDS011;30146;52.268;20.944;2022-11-14T04:16:56;24.50;;;17.70;;
44440;SDS011;30146;52.268;20.944;2022-11-14T04:19:45;27.30;;;16.60;;
44440;SDS011;30146;52.268;20.944;2022-11-14T04:22:35;21.40;;;13.80;;
44440;SDS011;30146;52.268;20.944;2022-11-14T04:25:24;21.00;;;12.30;;
44440;SDS011;30146;52.268;20.944;2022-11-14T04:28:13;18.00;;;10.90;;
44440;SDS011;30146;52.268;20.944;2022-11-14T04:31:03;19.90;;;12.10;;
44440;SDS011;30146;52.268;20.944;2022-11-14T04:33:53;22.80;;;11.60;;
44440;SDS011;30146;52.268;20.944;2022-11-14T04:36:42;20.90;;;10.60;;
44440;SDS011;30146;52.268;20.944;2022-11-14T04:39:32;16.30;;;10.60;;
44440;SDS011;30146;52.268;20.944;2022-11-14T04:42:22;13.90;;;9.90;;
44440;SDS011;30146;52.268;20.944;2022-11-14T04:45:11;18.40;;;10.40;;
44440;SDS011;30146;52.268;20.944;2022-11-14T04:48:01;15.30;;;9.60;;
44440;SDS011;30146;52.268;20.944;2022-11-14T04:50:50;27.10;;;17.30;;
44440;SDS011;30146;52.268;20.944;2022-11-14T04:53:39;19.10;;;11.40;;
44440;SDS011;30146;52.268;20.944;2022-11-14T04:56:29;12.00;;;8.00;;
44440;SDS011;30146;52.268;20.944;2022-11-14T04:59:18;10.90;;;7.90;;
44440;SDS011;30146;52.268;20.944;2022-11-14T05:02:08;9.70;;;7.80;;
44440;SDS011;30146;52.268;20.944;2022-11-14T05:04:58;10.90;;;7.40;;
44440;SDS011;30146;52.268;20.944;2022-11-14T05:07:47;12.60;;;7.90;;
44440;SDS011;30146;52.268;20.944;2022-11-14T05:10:37;11.30;;;8.20;;
44440;SDS011;30146;52.268;20.944;2022-11-14T05:13:29;13.30;;;8.00;;
44440;SDS011;30146;52.268;20.944;2022-11-14T05:16:18;13.10;;;7.70;;
44440;SDS011;30146;52.268;20.944;2022-11-14T05:19:08;11.30;;;7.30;;
44440;SDS011;30146;52.268;20.944;2022-11-14T05:21:57;13.00;;;8.50;;
44440;SDS011;30146;52.268;20.944;2022-11-14T05:24:51;13.20;;;9.90;;
44440;SDS011;30146;52.268;20.944;2022-11-14T05:27:42;14.40;;;8.50;;
44440;SDS011;30146;52.268;20.944;2022-11-14T05:30:32;17.50;;;9.40;;
44440;SDS011;30146;52.268;20.944;2022-11-14T05:33:23;14.50;;;10.00;;
44440;SDS011;30146;52.268;20.944;2022-11-14T05:36:14;15.30;;;9.10;;
44440;SDS011;30146;52.268;20.944;2022-11-14T05:39:04;16.90;;;10.90;;
44440;SDS011;30146;52.268;20.944;2022-11-14T05:41:53;16.30;;;8.70;;
44440;SDS011;30146;52.268;20.944;2022-11-14T05:44:43;12.10;;;8.70;;
44440;SDS011;30146;52.268;20.944;2022-11-14T05:47:32;10.50;;;7.30;;
44440;SDS011;30146;52.268;20.944;2022-11-14T05:50:21;10.80;;;7.10;;
44440;SDS011;30146;52.268;20.944;2022-11-14T05:53:11;11.40;;;8.30;;
44440;SDS011;30146;52.268;20.944;2022-11-14T05:56:01;13.30;;;8.60;;
44440;SDS011;30146;52.268;20.944;2022-11-14T05:58:52;12.50;;;9.30;;
44440;SDS011;30146;52.268;20.944;2022-11-14T06:01:41;13.30;;;9.30;;
44440;SDS011;30146;52.268;20.944;2022-11-14T06:04:31;12.50;;;9.20;;
44440;SDS011;30146;52.268;20.944;2022-11-14T06:07:20;15.40;;;10.20;;
44440;SDS011;30146;52.268;20.944;2022-11-14T06:10:10;14.50;;;10.00;;
44440;SDS011;30146;52.268;20.944;2022-11-14T06:13:00;13.30;;;8.70;;
44440;SDS011;30146;52.268;20.944;2022-11-14T06:15:49;14.80;;;9.40;;
44440;SDS011;30146;52.268;20.944;2022-11-14T06:18:39;14.60;;;9.70;;
44440;SDS011;30146;52.268;20.944;2022-11-14T06:21:29;16.20;;;9.90;;
44440;SDS011;30146;52.268;20.944;2022-11-14T06:24:18;19.30;;;13.30;;
44440;SDS011;30146;52.268;20.944;2022-11-14T06:27:07;14.60;;;9.40;;
44440;SDS011;30146;52.268;20.944;2022-11-14T06:29:57;12.10;;;7.90;;
44440;SDS011;30146;52.268;20.944;2022-11-14T06:32:47;13.40;;;9.10;;
44440;SDS011;30146;52.268;20.944;2022-11-14T06:35:37;11.20;;;7.90;;
44440;SDS011;30146;52.268;20.944;2022-11-14T06:38:26;14.30;;;8.50;;
44440;SDS011;30146;52.268;20.944;2022-11-14T06:41:18;17.80;;;9.10;;
44440;SDS011;30146;52.268;20.944;2022-11-14T06:44:08;10.60;;;6.90;;
44440;SDS011;30146;52.268;20.944;2022-11-14T06:46:57;11.20;;;7.70;;
44440;SDS011;30146;52.268;20.944;2022-11-14T06:49:47;11.00;;;8.20;;
44440;SDS011;30146;52.268;20.944;2022-11-14T06:52:37;9.00;;;6.90;;
44440;SDS011;30146;52.268;20.944;2022-11-14T06:55:26;11.60;;;7.30;;
44440;SDS011;30146;52.268;20.944;2022-11-14T06:58:16;14.50;;;8.50;;
44440;SDS011;30146;52.268;20.944;2022-11-14T07:01:06;10.70;;;6.90;;
44440;SDS011;30146;52.268;20.944;2022-11-14T07:03:58;11.80;;;6.10;;
44440;SDS011;30146;52.268;20.944;2022-11-14T07:06:48;9.60;;;6.20;;
44440;SDS011;30146;52.268;20.944;2022-11-14T07:09:43;15.00;;;8.50;;
44440;SDS011;30146;52.268;20.944;2022-11-14T07:12:40;10.70;;;7.30;;
44440;SDS011;30146;52.268;20.944;2022-11-14T07:15:30;12.70;;;8.50;;
44440;SDS011;30146;52.268;20.944;2022-11-14T07:18:19;12.50;;;7.70;;
44440;SDS011;30146;52.268;20.944;2022-11-14T07:21:13;11.50;;;7.50;;
44440;SDS011;30146;52.268;20.944;2022-11-14T07:24:03;10.10;;;7.00;;
44440;SDS011;30146;52.268;20.944;2022-11-14T07:26:53;12.10;;;7.60;;
44440;SDS011;30146;52.268;20.944;2022-11-14T07:29:43;10.40;;;7.80;;
44440;SDS011;30146;52.268;20.944;2022-11-14T07:32:32;13.60;;;8.50;;
44440;SDS011;30146;52.268;20.944;2022-11-14T07:35:21;17.30;;;9.40;;
44440;SDS011;30146;52.268;20.944;2022-11-14T07:38:12;12.10;;;9.10;;
44440;SDS011;30146;52.268;20.944;2022-11-14T07:41:02;20.80;;;10.40;;
44440;SDS011;30146;52.268;20.944;2022-11-14T07:43:53;15.20;;;9.00;;
44440;SDS011;30146;52.268;20.944;2022-11-14T07:46:43;15.10;;;9.50;;
44440;SDS011;30146;52.268;20.944;2022-11-14T07:49:32;11.40;;;8.30;;
44440;SDS011;30146;52.268;20.944;2022-11-14T07:52:22;12.00;;;7.50;;
44440;SDS011;30146;52.268;20.944;2022-11-14T07:55:12;12.50;;;7.80;;
44440;SDS011;30146;52.268;20.944;2022-11-14T07:58:01;11.00;;;8.10;;
44440;SDS011;30146;52.268;20.944;2022-11-14T08:00:51;10.30;;;7.40;;
44440;SDS011;30146;52.268;20.944;2022-11-14T08:03:40;10.10;;;6.00;;
44440;SDS011;30146;52.268;20.944;2022-11-14T08:06:32;7.70;;;6.20;;
44440;SDS011;30146;52.268;20.944;2022-11-14T08:09:21;6.60;;;5.80;;
44440;SDS011;30146;52.268;20.944;2022-11-14T08:12:11;11.80;;;6.20;;
44440;SDS011;30146;52.268;20.944;2022-11-14T08:15:01;13.80;;;7.70;;
44440;SDS011;30146;52.268;20.944;2022-11-14T08:17:51;11.60;;;7.00;;
44440;SDS011;30146;52.268;20.944;2022-11-14T08:20:43;7.10;;;5.00;;
44440;SDS011;30146;52.268;20.944;2022-11-14T08:23:33;10.10;;;6.50;;
44440;SDS011;30146;52.268;20.944;2022-11-14T08:26:23;9.20;;;6.40;;
44440;SDS011;30146;52.268;20.944;2022-11-14T08:29:19;12.20;;;7.30;;
44440;SDS011;30146;52.268;20.944;2022-11-14T08:32:09;10.40;;;6.60;;
44440;SDS011;30146;52.268;20.944;2022-11-14T08:34:58;10.50;;;7.50;;
44440;SDS011;30146;52.268;20.944;2022-11-14T08:37:48;11.60;;;6.90;;
44440;SDS011;30146;52.268;20.944;2022-11-14T08:40:38;11.80;;;6.60;;
44440;SDS011;30146;52.268;20.944;2022-11-14T08:43:28;11.00;;;6.50;;
44440;SDS011;30146;52.268;20.944;2022-11-14T08:46:18;13.00;;;6.60;;
44440;SDS011;30146;52.268;20.944;2022-11-14T08:49:07;6.70;;;4.70;;
44440;SDS011;30146;52.268;20.944;2022-11-14T08:51:57;10.50;;;5.60;;
44440;SDS011;30146;52.268;20.944;2022-11-14T08:54:47;9.80;;;5.90;;
44440;SDS011;30146;52.268;20.944;2022-11-14T08:57:36;11.70;;;6.20;;
44440;SDS011;30146;52.268;20.944;2022-11-14T09:00:33;10.50;;;6.00;;
44440;SDS011;30146;52.268;20.944;2022-11-14T09:03:23;7.50;;;5.40;;
44440;SDS011;30146;52.268;20.944;2022-11-14T09:06:13;6.90;;;4.80;;
44440;SDS011;30146;52.268;20.944;2022-11-14T09:09:03;6.90;;;4.90;;
44440;SDS011;30146;52.268;20.944;2022-11-14T09:11:53;6.70;;;4.40;;
44440;SDS011;30146;52.268;20.944;2022-11-14T09:14:45;5.60;;;4.30;;
44440;SDS011;30146;52.268;20.944;2022-11-14T09:17:35;5.20;;;3.60;;
44440;SDS011;30146;52.268;20.944;2022-11-14T09:20:25;9.00;;;4.70;;
44440;SDS011;30146;52.268;20.944;2022-11-14T09:23:21;7.20;;;4.00;;
44440;SDS011;30146;52.268;20.944;2022-11-14T09:26:12;4.80;;;3.80;;
44440;SDS011;30146;52.268;20.944;2022-11-14T09:29:04;7.80;;;4.90;;
44440;SDS011;30146;52.268;20.944;2022-11-14T09:31:54;7.20;;;5.50;;
44440;SDS011;30146;52.268;20.944;2022-11-14T09:34:46;10.10;;;5.90;;
44440;SDS011;30146;52.268;20.944;2022-11-14T09:37:36;8.40;;;6.40;;
44440;SDS011;30146;52.268;20.944;2022-11-14T09:40:25;8.70;;;6.50;;
44440;SDS011;30146;52.268;20.944;2022-11-14T09:43:24;14.70;;;8.10;;
44440;SDS011;30146;52.268;20.944;2022-11-14T09:46:29;13.00;;;10.10;;
44440;SDS011;30146;52.268;20.944;2022-11-14T09:49:26;10.10;;;7.30;;
44440;SDS011;30146;52.268;20.944;2022-11-14T09:52:25;11.90;;;7.80;;
44440;SDS011;30146;52.268;20.944;2022-11-14T09:55:21;9.30;;;8.00;;
44440;SDS011;30146;52.268;20.944;2022-11-14T09:58:22;9.00;;;6.80;;
44440;SDS011;30146;52.268;20.944;2022-11-14T10:01:14;9.90;;;7.60;;
44440;SDS011;30146;52.268;20.944;2022-11-14T10:04:13;9.60;;;7.50;;
44440;SDS011;30146;52.268;20.944;2022-11-14T10:07:13;12.50;;;8.10;;
44440;SDS011;30146;52.268;20.944;2022-11-14T10:10:18;10.00;;;7.60;;
44440;SDS011;30146;52.268;20.944;2022-11-14T10:13:33;10.50;;;7.40;;
44440;SDS011;30146;52.268;20.944;2022-11-14T10:16:33;7.70;;;6.00;;
44440;SDS011;30146;52.268;20.944;2022-11-14T10:19:32;7.80;;;6.90;;
44440;SDS011;30146;52.268;20.944;2022-11-14T10:22:36;8.90;;;7.10;;
44440;SDS011;30146;52.268;20.944;2022-11-14T10:25:39;9.40;;;5.30;;
44440;SDS011;30146;52.268;20.944;2022-11-14T10:28:47;7.90;;;5.70;;
44440;SDS011;30146;52.268;20.944;2022-11-14T10:31:52;5.70;;;4.50;;
44440;SDS011;30146;52.268;20.944;2022-11-14T10:34:53;7.00;;;4.80;;
44440;SDS011;30146;52.268;20.944;2022-11-14T10:37:54;8.30;;;4.70;;
44440;SDS011;30146;52.268;20.944;2022-11-14T10:40:49;10.70;;;6.40;;
44440;SDS011;30146;52.268;20.944;2022-11-14T10:43:41;14.30;;;8.00;;
44440;SDS011;30146;52.268;20.944;2022-11-14T10:46:35;10.30;;;6.90;;
44440;SDS011;30146;52.268;20.944;2022-11-14T10:49:30;12.20;;;7.30;;
44440;SDS011;30146;52.268;20.944;2022-11-14T10:52:24;13.00;;;7.80;;
44440;SDS011;30146;52.268;20.944;2022-11-14T10:55:23;9.50;;;6.70;;
44440;SDS011;30146;52.268;20.944;2022-11-14T10:58:34;7.50;;;6.70;;
44440;SDS011;30146;52.268;20.944;2022-11-14T11:01:36;7.60;;;6.40;;
44440;SDS011;30146;52.268;20.944;2022-11-14T11:04:27;8.60;;;6.10;;
44440;SDS011;30146;52.268;20.944;2022-11-14T11:07:19;9.60;;;6.70;;
44440;SDS011;30146;52.268;20.944;2022-11-14T11:10:28;12.00;;;6.80;;
44440;SDS011;30146;52.268;20.944;2022-11-14T11:13:39;10.90;;;7.60;;
44440;SDS011;30146;52.268;20.944;2022-11-14T11:16:41;22.60;;;12.40;;
44440;SDS011;30146;52.268;20.944;2022-11-14T11:19:39;22.90;;;12.40;;
44440;SDS011;30146;52.268;20.944;2022-11-14T11:22:34;20.90;;;11.90;;
44440;SDS011;30146;52.268;20.944;2022-11-14T11:28:16;14.00;;;8.60;;
44440;SDS011;30146;52.268;20.944;2022-11-14T11:31:08;15.80;;;11.90;;
44440;SDS011;30146;52.268;20.944;2022-11-14T11:34:06;21.40;;;12.00;;
44440;SDS011;30146;52.268;20.944;2022-11-14T11:36:57;17.00;;;11.60;;
44440;SDS011;30146;52.268;20.944;2022-11-14T11:39:53;24.70;;;13.20;;
44440;SDS011;30146;52.268;20.944;2022-11-14T11:43:08;24.70;;;13.50;;
44440;SDS011;30146;52.268;20.944;2022-11-14T11:49:42;11.40;;;8.40;;
44440;SDS011;30146;52.268;20.944;2022-11-14T11:52:41;15.20;;;9.10;;
44440;SDS011;30146;52.268;20.944;2022-11-14T11:55:43;10.20;;;7.90;;
44440;SDS011;30146;52.268;20.944;2022-11-14T11:58:40;9.40;;;7.00;;
44440;SDS011;30146;52.268;20.944;2022-11-14T12:01:34;11.40;;;8.20;;
44440;SDS011;30146;52.268;20.944;2022-11-14T12:04:23;12.80;;;6.90;;
44440;SDS011;30146;52.268;20.944;2022-11-14T12:07:14;10.50;;;7.00;;
44440;SDS011;30146;52.268;20.944;2022-11-14T12:10:10;8.30;;;6.80;;
44440;SDS011;30146;52.268;20.944;2022-11-14T12:13:13;10.00;;;7.20;;
44440;SDS011;30146;52.268;20.944;2022-11-14T12:16:22;9.50;;;7.00;;
44440;SDS011;30146;52.268;20.944;2022-11-14T12:22:41;12.10;;;9.20;;
44440;SDS011;30146;52.268;20.944;2022-11-14T12:25:52;10.60;;;7.90;;
44440;SDS011;30146;52.268;20.944;2022-11-14T12:29:05;13.20;;;9.50;;
44440;SDS011;30146;52.268;20.944;2022-11-14T12:32:12;16.00;;;12.70;;
44440;SDS011;30146;52.268;20.944;2022-11-14T12:35:06;16.80;;;11.30;;
44440;SDS011;30146;52.268;20.944;2022-11-14T12:38:12;15.80;;;12.00;;
44440;SDS011;30146;52.268;20.944;2022-11-14T12:41:05;19.70;;;14.20;;
44440;SDS011;30146;52.268;20.944;2022-11-14T12:47:16;31.80;;;18.60;;
44440;SDS011;30146;52.268;20.944;2022-11-14T12:50:37;27.20;;;17.60;;
44440;SDS011;30146;52.268;20.944;2022-11-14T12:53:42;35.10;;;19.00;;
44440;SDS011;30146;52.268;20.944;2022-11-14T12:56:43;29.90;;;19.70;;
44440;SDS011;30146;52.268;20.944;2022-11-14T12:59:50;27.00;;;17.40;;
44440;SDS011;30146;52.268;20.944;2022-11-14T13:03:08;25.00;;;14.90;;
44440;SDS011;30146;52.268;20.944;2022-11-14T13:06:08;32.40;;;18.60;;
44440;SDS011;30146;52.268;20.944;2022-11-14T13:09:14;21.30;;;14.30;;
44440;SDS011;30146;52.268;20.944;2022-11-14T13:12:27;29.80;;;15.60;;
44440;SDS011;30146;52.268;20.944;2022-11-14T13:15:47;25.90;;;15.60;;
44440;SDS011;30146;52.268;20.944;2022-11-14T13:18:58;27.50;;;16.80;;
44440;SDS011;30146;52.268;20.944;2022-11-14T13:25:26;35.70;;;19.10;;
44440;SDS011;30146;52.268;20.944;2022-11-14T13:31:46;33.90;;;17.70;;
44440;SDS011;30146;52.268;20.944;2022-11-14T13:34:42;44.60;;;22.60;;
44440;SDS011;30146;52.268;20.944;2022-11-14T13:37:44;45.90;;;22.70;;
44440;SDS011;30146;52.268;20.944;2022-11-14T13:40:48;42.60;;;21.60;;
44440;SDS011;30146;52.268;20.944;2022-11-14T13:43:49;44.20;;;21.00;;
44440;SDS011;30146;52.268;20.944;2022-11-14T13:46:56;50.60;;;22.00;;
44440;SDS011;30146;52.268;20.944;2022-11-14T13:49:59;38.70;;;18.20;;
44440;SDS011;30146;52.268;20.944;2022-11-14T13:52:52;40.80;;;20.30;;
44440;SDS011;30146;52.268;20.944;2022-11-14T13:55:49;40.30;;;19.90;;
44440;SDS011;30146;52.268;20.944;2022-11-14T13:58:52;37.70;;;19.30;;
44440;SDS011;30146;52.268;20.944;2022-11-14T14:02:03;37.40;;;19.90;;
44440;SDS011;30146;52.268;20.944;2022-11-14T14:05:11;33.40;;;18.50;;
44440;SDS011;30146;52.268;20.944;2022-11-14T14:08:11;37.00;;;20.50;;
44440;SDS011;30146;52.268;20.944;2022-11-14T14:11:14;47.00;;;22.90;;
44440;SDS011;30146;52.268;20.944;2022-11-14T14:14:24;37.80;;;21.50;;
44440;SDS011;30146;52.268;20.944;2022-11-14T14:17:45;37.20;;;21.70;;
44440;SDS011;30146;52.268;20.944;2022-11-14T14:20:44;32.40;;;19.50;;
44440;SDS011;30146;52.268;20.944;2022-11-14T14:23:39;34.00;;;19.00;;
44440;SDS011;30146;52.268;20.944;2022-11-14T14:26:42;36.30;;;20.40;;
44440;SDS011;30146;52.268;20.944;2022-11-14T14:29:53;37.00;;;20.80;;
44440;SDS011;30146;52.268;20.944;2022-11-14T14:33:06;38.60;;;21.60;;
44440;SDS011;30146;52.268;20.944;2022-11-14T14:35:59;43.20;;;22.20;;
44440;SDS011;30146;52.268;20.944;2022-11-14T14:38:49;33.10;;;19.30;;
44440;SDS011;30146;52.268;20.944;2022-11-14T14:41:57;42.40;;;22.50;;
44440;SDS011;30146;52.268;20.944;2022-11-14T14:44:58;43.20;;;21.50;;
44440;SDS011;30146;52.268;20.944;2022-11-14T14:47:50;29.20;;;15.50;;
44440;SDS011;30146;52.268;20.944;2022-11-14T14:50:48;36.90;;;19.20;;
44440;SDS011;30146;52.268;20.944;2022-11-14T14:53:39;35.10;;;19.50;;
44440;SDS011;30146;52.268;20.944;2022-11-14T14:56:45;37.80;;;20.90;;
44440;SDS011;30146;52.268;20.944;2022-11-14T14:59:41;26.60;;;16.90;;
44440;SDS011;30146;52.268;20.944;2022-11-14T15:02:31;33.40;;;19.30;;
44440;SDS011;30146;52.268;20.944;2022-11-14T15:05:22;28.30;;;18.40;;
44440;SDS011;30146;52.268;20.944;2022-11-14T15:08:13;32.50;;;18.70;;
44440;SDS011;30146;52.268;20.944;2022-11-14T15:11:04;26.80;;;16.20;;
44440;SDS011;30146;52.268;20.944;2022-11-14T15:13:55;26.90;;;17.40;;
44440;SDS011;30146;52.268;20.944;2022-11-14T15:16:46;19.80;;;13.50;;
44440;SDS011;30146;52.268;20.944;2022-11-14T15:19:38;18.50;;;12.50;;
44440;SDS011;30146;52.268;20.944;2022-11-14T15:22:31;16.60;;;10.70;;
44440;SDS011;30146;52.268;20.944;2022-11-14T15:25:20;18.50;;;12.50;;
44440;SDS011;30146;52.268;20.944;2022-11-14T15:28:14;20.20;;;13.20;;
44440;SDS011;30146;52.268;20.944;2022-11-14T15:31:11;18.90;;;13.80;;
44440;SDS011;30146;52.268;20.944;2022-11-14T15:34:06;23.60;;;13.50;;
44440;SDS011;30146;52.268;20.944;2022-11-14T15:37:23;19.10;;;12.50;;
44440;SDS011;30146;52.268;20.944;2022-11-14T15:40:17;20.90;;;13.00;;
44440;SDS011;30146;52.268;20.944;2022-11-14T15:46:38;18.80;;;12.00;;
44440;SDS011;30146;52.268;20.944;2022-11-14T15:49:29;21.80;;;14.60;;
44440;SDS011;30146;52.268;20.944;2022-11-14T15:52:23;27.00;;;13.80;;
44440;SDS011;30146;52.268;20.944;2022-11-14T15:55:16;20.70;;;13.70;;
44440;SDS011;30146;52.268;20.944;2022-11-14T15:58:09;23.40;;;14.10;;
44440;SDS011;30146;52.268;20.944;2022-11-14T16:01:14;20.20;;;14.70;;
44440;SDS011;30146;52.268;20.944;2022-11-14T16:04:13;19.00;;;12.00;;
44440;SDS011;30146;52.268;20.944;2022-11-14T16:07:04;16.00;;;11.70;;
44440;SDS011;30146;52.268;20.944;2022-11-14T16:09:57;18.60;;;13.20;;
44440;SDS011;30146;52.268;20.944;2022-11-14T16:12:47;23.40;;;14.10;;
44440;SDS011;30146;52.268;20.944;2022-11-14T16:15:39;16.50;;;11.60;;
44440;SDS011;30146;52.268;20.944;2022-11-14T16:18:28;18.50;;;12.10;;
44440;SDS011;30146;52.268;20.944;2022-11-14T16:21:26;18.40;;;13.30;;
44440;SDS011;30146;52.268;20.944;2022-11-14T16:24:17;18.00;;;12.80;;
44440;SDS011;30146;52.268;20.944;2022-11-14T16:27:19;19.50;;;13.10;;
44440;SDS011;30146;52.268;20.944;2022-11-14T16:30:16;20.40;;;13.30;;
44440;SDS011;30146;52.268;20.944;2022-11-14T16:33:08;20.60;;;12.90;;
44440;SDS011;30146;52.268;20.944;2022-11-14T16:36:03;23.00;;;14.00;;
44440;SDS011;30146;52.268;20.944;2022-11-14T16:38:54;15.50;;;11.20;;
44440;SDS011;30146;52.268;20.944;2022-11-14T16:41:48;17.60;;;11.50;;
44440;SDS011;30146;52.268;20.944;2022-11-14T16:44:38;20.70;;;13.30;;
44440;SDS011;30146;52.268;20.944;2022-11-14T16:47:36;21.40;;;13.00;;
44440;SDS011;30146;52.268;20.944;2022-11-14T16:50:26;15.80;;;11.40;;
44440;SDS011;30146;52.268;20.944;2022-11-14T16:53:15;16.80;;;11.00;;
44440;SDS011;30146;52.268;20.944;2022-11-14T16:56:06;18.10;;;11.60;;
44440;SDS011;30146;52.268;20.944;2022-11-14T16:58:59;19.80;;;12.50;;
44440;SDS011;30146;52.268;20.944;2022-11-14T17:01:49;16.90;;;11.60;;
44440;SDS011;30146;52.268;20.944;2022-11-14T17:04:39;21.30;;;15.00;;
44440;SDS011;30146;52.268;20.944;2022-11-14T17:07:29;18.70;;;11.60;;
44440;SDS011;30146;52.268;20.944;2022-11-14T17:10:20;22.00;;;12.20;;
44440;SDS011;30146;52.268;20.944;2022-11-14T17:13:10;15.90;;;11.40;;
44440;SDS011;30146;52.268;20.944;2022-11-14T17:16:07;18.90;;;11.80;;